createdAt,value
2023-03-06T04:10:56.919Z,3.42
2023-03-06T04:13:59.896Z,3.42
2023-03-06T04:17:02.136Z,2.88
2023-03-06T04:20:05.150Z,2.87
2023-03-06T04:23:07.860Z,2.82
2023-03-06T04:26:10.406Z,2.85
2023-03-06T04:29:13.315Z,2.97
2023-03-06T04:32:15.844Z,2.98
2023-03-06T04:35:18.358Z,2.90
2023-03-06T04:38:22.429Z,2.90
2023-03-06T04:41:24.705Z,2.95
2023-03-06T04:44:27.252Z,3.11
2023-03-06T04:47:29.386Z,2.99
2023-03-06T04:50:32.628Z,3.01
2023-03-06T04:53:35.081Z,3.04
2023-03-06T04:56:37.450Z,3.05
2023-03-06T04:59:39.644Z,2.96
2023-03-06T05:02:43.488Z,2.94
2023-03-06T05:05:45.980Z,2.95
2023-03-06T05:08:48.407Z,3.02
2023-03-06T05:11:50.523Z,3.29
2023-03-06T05:14:52.948Z,3.19
2023-03-06T05:17:56.453Z,3.04
2023-03-06T05:21:00.013Z,3.12
2023-03-06T05:24:02.264Z,3.29
2023-03-06T05:27:04.881Z,3.35
2023-03-06T05:30:09.678Z,3.32
2023-03-06T05:33:12.181Z,3.22
2023-03-06T05:36:14.394Z,3.17
2023-03-06T05:39:16.760Z,3.19
2023-03-06T05:42:18.926Z,3.21
2023-03-06T05:45:21.746Z,3.23
2023-03-06T05:48:23.964Z,3.35
2023-03-06T05:51:26.764Z,3.46
2023-03-06T05:54:28.879Z,3.55
2023-03-06T05:57:31.568Z,3.59
2023-03-06T06:00:33.772Z,3.59
2023-03-06T06:03:36.353Z,3.55
2023-03-06T06:06:38.698Z,3.61
2023-03-06T06:09:41.729Z,3.55
2023-03-06T06:12:43.956Z,3.62
2023-03-06T06:15:46.350Z,3.77
2023-03-06T06:18:48.579Z,3.80
2023-03-06T06:21:53.890Z,3.77
2023-03-06T06:24:56.117Z,3.86
2023-03-06T06:27:58.606Z,3.87
2023-03-06T06:31:00.897Z,3.94
2023-03-06T06:34:07.257Z,3.83
2023-03-06T06:37:09.520Z,3.80
2023-03-06T06:40:12.398Z,3.71
2023-03-06T06:43:14.716Z,3.59
2023-03-06T06:46:49.944Z,3.58
2023-03-06T06:49:39.596Z,3.68
2023-03-06T06:52:42.476Z,3.64
2023-03-06T06:55:44.575Z,3.66
2023-03-06T06:58:47.145Z,3.64
2023-03-06T07:01:50.354Z,3.66
2023-03-06T07:05:03.504Z,3.68
2023-03-06T07:08:07.285Z,3.80
2023-03-06T07:11:17.985Z,3.86
2023-03-06T07:14:21.841Z,4.01
2023-03-06T07:17:24.470Z,3.98
2023-03-06T07:20:26.897Z,4.13
2023-03-06T07:23:29.552Z,3.97
2023-03-06T07:26:34.472Z,3.88
2023-03-06T07:29:37.250Z,3.99
2023-03-06T07:32:39.384Z,3.96
2023-03-06T07:35:43.492Z,3.84
2023-03-06T07:38:45.979Z,3.99
2023-03-06T07:41:48.413Z,3.97
2023-03-06T07:44:50.621Z,4.13
2023-03-06T07:47:54.046Z,4.13
2023-03-06T07:51:04.644Z,4.24
2023-03-06T07:54:07.109Z,4.25
2023-03-06T07:57:09.279Z,4.35
2023-03-06T08:00:15.839Z,4.32
2023-03-06T08:03:19.014Z,4.17
2023-03-06T08:06:24.953Z,4.20
2023-03-06T08:09:27.533Z,4.32
2023-03-06T08:12:29.692Z,4.15
2023-03-06T08:15:32.186Z,3.88
2023-03-06T08:18:35.279Z,3.90
2023-03-06T08:21:37.845Z,3.84
2023-03-06T08:24:40.328Z,4.20
2023-03-06T08:27:43.361Z,4.52
2023-03-06T08:30:45.514Z,4.53
2023-03-06T08:33:48.079Z,4.52
2023-03-06T08:36:50.987Z,4.96
2023-03-06T08:39:53.636Z,5.33
2023-03-06T08:42:55.842Z,5.35
2023-03-06T08:45:58.945Z,5.30
2023-03-06T08:49:01.577Z,5.59
2023-03-06T08:52:04.097Z,6.47
2023-03-06T08:55:06.914Z,7.25
2023-03-06T08:58:09.481Z,7.96
2023-03-06T09:01:35.151Z,8.52
2023-03-06T09:04:37.716Z,8.93
2023-03-06T09:07:39.831Z,8.09
2023-03-06T09:10:48.702Z,7.80
2023-03-06T09:13:51.066Z,7.76
2023-03-06T09:16:53.529Z,9.19
2023-03-06T09:19:55.643Z,9.27
2023-03-06T09:22:58.491Z,9.29
2023-03-06T09:26:01.901Z,9.70
2023-03-06T09:29:04.464Z,9.44
2023-03-06T09:32:06.968Z,9.72
2023-03-06T09:35:10.690Z,10.03
2023-03-06T09:38:12.835Z,11.57
2023-03-06T09:41:29.099Z,12.02
2023-03-06T09:44:34.401Z,12.07
2023-03-06T09:48:03.226Z,12.67
2023-03-06T09:51:13.807Z,11.81
2023-03-06T09:54:16.587Z,10.55
2023-03-06T09:57:23.896Z,9.96
2023-03-06T10:00:40.559Z,9.89
2023-03-06T10:03:55.103Z,9.04
2023-03-06T10:07:06.420Z,9.30
2023-03-06T10:10:18.236Z,9.37
2023-03-06T10:13:38.680Z,9.02
2023-03-06T10:16:41.386Z,8.79
2023-03-06T10:19:43.753Z,7.98
2023-03-06T10:23:05.157Z,7.48
2023-03-06T10:26:19.507Z,7.48
2023-03-06T10:29:47.555Z,7.18
2023-03-06T10:33:17.595Z,6.79
2023-03-06T10:36:22.185Z,6.76
2023-03-06T10:39:24.465Z,6.67
2023-03-06T10:42:28.959Z,6.68
2023-03-06T10:45:40.553Z,6.60
2023-03-06T10:48:58.925Z,6.62
2023-03-06T10:52:22.364Z,6.74
2023-03-06T10:55:31.350Z,7.04
2023-03-06T10:58:33.545Z,7.38
2023-03-06T11:01:36.409Z,7.19
2023-03-06T11:04:41.672Z,7.32
2023-03-06T11:08:01.629Z,7.29
2023-03-06T11:11:36.362Z,7.62
2023-03-06T11:14:39.473Z,7.85
2023-03-06T11:17:47.823Z,7.73
2023-03-06T11:20:53.356Z,7.80
2023-03-06T11:24:01.951Z,7.97
2023-03-06T11:27:34.779Z,8.06
2023-03-06T11:30:44.212Z,8.32
2023-03-06T11:33:58.604Z,8.41
2023-03-06T11:37:07.137Z,8.43
2023-03-06T11:40:31.724Z,8.28
2023-03-06T11:43:56.836Z,8.00
2023-03-06T11:47:08.729Z,8.36
2023-03-06T11:50:21.275Z,8.32
2023-03-06T11:53:32.153Z,8.21
2023-03-06T11:56:56.157Z,8.13
2023-03-06T12:00:19.760Z,8.18
2023-03-06T12:03:59.127Z,7.87
2023-03-06T12:07:31.481Z,7.93
2023-03-06T12:10:41.133Z,7.91
2023-03-06T12:14:05.343Z,7.75
2023-03-06T12:17:37.012Z,8.14
2023-03-06T12:21:06.864Z,8.10
2023-03-06T12:24:15.292Z,8.26
2023-03-06T12:27:31.594Z,8.19
2023-03-06T12:30:46.302Z,8.51
2023-03-06T12:33:51.271Z,8.35
2023-03-06T12:37:20.208Z,8.44
2023-03-06T12:41:04.377Z,8.48
2023-03-06T12:44:25.697Z,8.38
2023-03-06T12:47:29.112Z,8.23
2023-03-06T12:50:36.836Z,8.46
2023-03-06T12:53:41.484Z,8.33
2023-03-06T12:56:44.246Z,7.96
2023-03-06T12:59:48.626Z,7.90
2023-03-06T13:03:13.150Z,7.96
2023-03-06T13:06:24.309Z,8.00
2023-03-06T13:09:38.893Z,7.80
2023-03-06T13:13:08.530Z,7.79
2023-03-06T13:16:14.843Z,7.93
2023-03-06T13:19:26.996Z,7.84
2023-03-06T13:22:30.196Z,7.56
2023-03-06T13:25:32.969Z,7.35
2023-03-06T13:28:48.604Z,7.40
2023-03-06T13:31:53.804Z,7.59
2023-03-06T13:34:56.379Z,7.53
2023-03-06T13:37:59.732Z,7.43
2023-03-06T13:41:31.244Z,7.50
2023-03-06T13:44:41.359Z,7.40
2023-03-06T13:48:15.586Z,7.31
2023-03-06T13:51:27.033Z,7.06
2023-03-06T13:55:24.004Z,6.97
2023-03-06T13:58:44.238Z,7.13
2023-03-06T14:01:49.515Z,7.37
2023-03-06T14:04:58.835Z,6.98
2023-03-06T14:08:11.973Z,7.12
2023-03-06T14:11:21.021Z,6.87
2023-03-06T14:14:33.909Z,7.12
2023-03-06T14:17:39.082Z,6.83
2023-03-06T14:20:56.290Z,6.86
2023-03-06T14:24:01.059Z,6.69
2023-03-06T14:27:03.606Z,6.94
2023-03-06T14:30:14.401Z,6.92
2023-03-06T14:33:35.039Z,6.73
2023-03-06T14:36:49.725Z,6.47
2023-03-06T14:39:52.407Z,6.50
2023-03-06T14:43:27.779Z,6.45
2023-03-06T14:46:30.016Z,6.36
2023-03-06T14:49:33.003Z,6.28
2023-03-06T14:52:36.211Z,6.42
2023-03-06T14:55:50.151Z,6.16
2023-03-06T14:59:01.472Z,6.20
2023-03-06T15:02:08.485Z,6.13
2023-03-06T15:05:19.840Z,6.07
2023-03-06T15:08:28.069Z,5.93
2023-03-06T15:11:53.596Z,6.01
2023-03-06T15:15:03.737Z,5.93
2023-03-06T15:18:28.744Z,5.83
2023-03-06T15:21:38.084Z,5.67
2023-03-06T15:24:40.379Z,5.54
2023-03-06T15:27:53.525Z,5.47
2023-03-06T15:31:04.918Z,5.51
2023-03-06T15:34:07.522Z,5.61
2023-03-06T15:37:28.759Z,5.56
2023-03-06T15:40:31.942Z,5.29
2023-03-06T15:43:38.237Z,5.34
2023-03-06T15:46:41.527Z,5.28
2023-03-06T15:49:43.802Z,5.28
2023-03-06T15:52:47.553Z,5.21
2023-03-06T15:55:51.702Z,5.00
2023-03-06T15:58:55.422Z,5.02
2023-03-06T16:02:01.204Z,5.01
2023-03-06T16:05:15.084Z,5.06
2023-03-06T16:08:17.269Z,5.02
2023-03-06T16:11:32.476Z,5.09
2023-03-06T16:14:37.765Z,5.03
2023-03-06T16:17:40.154Z,4.91
2023-03-06T16:20:42.639Z,4.78
2023-03-06T16:23:45.102Z,4.62
